sensor_id;sensor_type;location;lat;lon;timestamp;pressure;altitude;pressure_sealevel;temperature;humidity
71666;BME280;59503;53.486;10.196;2023-02-19T00:00:54;101551.09;;;3.53;100.00
71666;BME280;59503;53.486;10.196;2023-02-19T00:03:20;101542.25;;;3.52;100.00
71666;BME280;59503;53.486;10.196;2023-02-19T00:05:45;101546.22;;;3.55;100.00
71666;BME280;59503;53.486;10.196;2023-02-19T00:08:10;101532.66;;;3.46;100.00
71666;BME280;59503;53.486;10.196;2023-02-19T00:10:36;101542.75;;;3.54;100.00
71666;BME280;59503;53.486;10.196;2023-02-19T00:13:01;101539.88;;;3.51;100.00
71666;BME280;59503;53.486;10.196;2023-02-19T00:15:27;101554.09;;;3.51;100.00
71666;BME280;59503;53.486;10.196;2023-02-19T00:17:52;101548.16;;;3.54;100.00
71666;BME280;59503;53.486;10.196;2023-02-19T00:20:17;101547.03;;;3.55;100.00
71666;BME280;59503;53.486;10.196;2023-02-19T00:22:43;101548.41;;;3.53;100.00
71666;BME280;59503;53.486;10.196;2023-02-19T00:25:08;101553.78;;;3.53;100.00
71666;BME280;59503;53.486;10.196;2023-02-19T00:27:34;101542.25;;;3.52;100.00
71666;BME280;59503;53.486;10.196;2023-02-19T00:29:59;101541.66;;;3.55;100.00
71666;BME280;59503;53.486;10.196;2023-02-19T00:32:25;101543.03;;;3.53;100.00
71666;BME280;59503;53.486;10.196;2023-02-19T00:34:50;101536.97;;;3.47;100.00
71666;BME280;59503;53.486;10.196;2023-02-19T00:37:15;101540.16;;;3.49;100.00
71666;BME280;59503;53.486;10.196;2023-02-19T00:39:41;101534.59;;;3.46;100.00
71666;BME280;59503;53.486;10.196;2023-02-19T00:42:06;101518.44;;;3.46;100.00
71666;BME280;59503;53.486;10.196;2023-02-19T00:44:32;101526.22;;;3.47;100.00
71666;BME280;59503;53.486;10.196;2023-02-19T00:46:57;101524.13;;;3.44;100.00
71666;BME280;59503;53.486;10.196;2023-02-19T00:49:23;101528.91;;;3.47;100.00
71666;BME280;59503;53.486;10.196;2023-02-19T00:51:50;101539.66;;;3.47;100.00
71666;BME280;59503;53.486;10.196;2023-02-19T00:54:16;101542.03;;;3.49;100.00
71666;BME280;59503;53.486;10.196;2023-02-19T00:56:42;101551.09;;;3.53;100.00
71666;BME280;59503;53.486;10.196;2023-02-19T00:59:08;101547.53;;;3.57;100.00
71666;BME280;59503;53.486;10.196;2023-02-19T01:01:34;101540.06;;;3.54;100.00
71666;BME280;59503;53.486;10.196;2023-02-19T01:03:59;101540.06;;;3.54;100.00
71666;BME280;59503;53.486;10.196;2023-02-19T01:06:25;101544.13;;;3.52;100.00
71666;BME280;59503;53.486;10.196;2023-02-19T01:08:50;101548.22;;;3.49;100.00
71666;BME280;59503;53.486;10.196;2023-02-19T01:11:16;101548.78;;;3.46;100.00
71666;BME280;59503;53.486;10.196;2023-02-19T01:13:42;101550.41;;;3.47;100.00
71666;BME280;59503;53.486;10.196;2023-02-19T01:16:13;101554.09;;;3.51;100.00
71666;BME280;59503;53.486;10.196;2023-02-19T01:18:39;101559.66;;;3.55;100.00
71666;BME280;59503;53.486;10.196;2023-02-19T01:21:06;101554.00;;;3.56;100.00
71666;BME280;59503;53.486;10.196;2023-02-19T01:23:32;101554.00;;;3.56;100.00
71666;BME280;59503;53.486;10.196;2023-02-19T01:25:58;101552.13;;;3.57;100.00
71666;BME280;59503;53.486;10.196;2023-02-19T01:28:23;101554.00;;;3.56;100.00
71666;BME280;59503;53.486;10.196;2023-02-19T01:30:49;101555.09;;;3.55;100.00
71666;BME280;59503;53.486;10.196;2023-02-19T01:33:14;101553.00;;;3.52;100.00
71666;BME280;59503;53.486;10.196;2023-02-19T01:35:40;101552.78;;;3.49;100.00
71666;BME280;59503;53.486;10.196;2023-02-19T01:38:05;101550.63;;;3.51;100.00
71666;BME280;59503;53.486;10.196;2023-02-19T01:40:34;101550.91;;;3.49;100.00
71666;BME280;59503;53.486;10.196;2023-02-19T01:42:59;101543.94;;;3.48;100.00
71666;BME280;59503;53.486;10.196;2023-02-19T01:50:29;101542.84;;;3.49;100.00
71666;BME280;59503;53.486;10.196;2023-02-19T01:52:57;101540.53;;;3.43;100.00
71666;BME280;59503;53.486;10.196;2023-02-19T01:55:23;101542.03;;;3.49;100.00
71666;BME280;59503;53.486;10.196;2023-02-19T01:57:52;101535.88;;;3.48;100.00
71666;BME280;59503;53.486;10.196;2023-02-19T02:00:19;101536.38;;;3.50;100.00
71666;BME280;59503;53.486;10.196;2023-02-19T02:02:48;101536.88;;;3.52;100.00
71666;BME280;59503;53.486;10.196;2023-02-19T02:07:53;101539.06;;;3.50;100.00
71666;BME280;59503;53.486;10.196;2023-02-19T02:10:37;101549.91;;;3.45;100.00
71666;BME280;59503;53.486;10.196;2023-02-19T02:13:02;101543.41;;;3.46;100.00
71666;BME280;59503;53.486;10.196;2023-02-19T02:15:35;101538.81;;;3.33;100.00
71666;BME280;59503;53.486;10.196;2023-02-19T02:29:42;101544.66;;;3.03;100.00
71666;BME280;59503;53.486;10.196;2023-02-19T02:32:15;101537.78;;;2.97;100.00
71666;BME280;59503;53.486;10.196;2023-02-19T02:34:48;101545.31;;;2.95;100.00
71666;BME280;59503;53.486;10.196;2023-02-19T02:37:15;101546.41;;;2.94;100.00
71666;BME280;59503;53.486;10.196;2023-02-19T02:39:43;101549.06;;;2.94;100.00
71666;BME280;59503;53.486;10.196;2023-02-19T02:42:10;101549.16;;;2.89;100.00
71666;BME280;59503;53.486;10.196;2023-02-19T02:48:10;101559.91;;;2.89;100.00
71666;BME280;59503;53.486;10.196;2023-02-19T02:50:44;101561.56;;;2.85;100.00
71666;BME280;59503;53.486;10.196;2023-02-19T02:53:15;101558.66;;;2.82;100.00
71666;BME280;59503;53.486;10.196;2023-02-19T02:56:01;101560.56;;;2.81;100.00
71666;BME280;59503;53.486;10.196;2023-02-19T02:58:28;101542.06;;;2.80;100.00
71666;BME280;59503;53.486;10.196;2023-02-19T03:00:59;101550.84;;;2.85;100.00
71666;BME280;59503;53.486;10.196;2023-02-19T03:03:46;101550.41;;;2.78;100.00
71666;BME280;59503;53.486;10.196;2023-02-19T03:06:16;101551.97;;;2.79;100.00
71666;BME280;59503;53.486;10.196;2023-02-19T03:09:09;101545.91;;;2.74;100.00
71666;BME280;59503;53.486;10.196;2023-02-19T03:11:38;101553.22;;;2.68;100.00
71666;BME280;59503;53.486;10.196;2023-02-19T03:14:40;101551.78;;;2.57;100.00
71666;BME280;59503;53.486;10.196;2023-02-19T03:17:40;101557.69;;;2.54;100.00
71666;BME280;59503;53.486;10.196;2023-02-19T03:20:26;101559.09;;;2.51;100.00
71666;BME280;59503;53.486;10.196;2023-02-19T03:22:53;101555.06;;;2.49;100.00
71666;BME280;59503;53.486;10.196;2023-02-19T03:25:24;101556.69;;;2.50;100.00
71666;BME280;59503;53.486;10.196;2023-02-19T03:28:11;101561.25;;;2.49;100.00
71666;BME280;59503;53.486;10.196;2023-02-19T03:30:46;101565.28;;;2.47;100.00
71666;BME280;59503;53.486;10.196;2023-02-19T03:33:17;101577.41;;;2.44;100.00
71666;BME280;59503;53.486;10.196;2023-02-19T03:36:05;101574.44;;;2.46;100.00
71666;BME280;59503;53.486;10.196;2023-02-19T03:38:44;101585.16;;;2.46;100.00
71666;BME280;59503;53.486;10.196;2023-02-19T03:44:06;101583.28;;;2.46;100.00
71666;BME280;59503;53.486;10.196;2023-02-19T03:46:46;101584.38;;;2.45;100.00
71666;BME280;59503;53.486;10.196;2023-02-19T03:49:31;101595.91;;;2.46;100.00
71666;BME280;59503;53.486;10.196;2023-02-19T03:52:24;101587.84;;;2.46;100.00
71666;BME280;59503;53.486;10.196;2023-02-19T03:55:08;101583.81;;;2.48;100.00
71666;BME280;59503;53.486;10.196;2023-02-19T03:57:50;101593.22;;;2.46;100.00
71666;BME280;59503;53.486;10.196;2023-02-19T04:00:46;101597.50;;;2.47;100.00
71666;BME280;59503;53.486;10.196;2023-02-19T04:06:08;101600.16;;;2.47;100.00
71666;BME280;59503;53.486;10.196;2023-02-19T04:08:38;101596.19;;;2.44;100.00
71666;BME280;59503;53.486;10.196;2023-02-19T04:11:05;101601.56;;;2.44;100.00
71666;BME280;59503;53.486;10.196;2023-02-19T04:13:35;101608.22;;;2.47;100.00
71666;BME280;59503;53.486;10.196;2023-02-19T04:16:06;101610.13;;;2.46;100.00
71666;BME280;59503;53.486;10.196;2023-02-19T04:18:37;101616.84;;;2.44;100.00
71666;BME280;59503;53.486;10.196;2023-02-19T04:21:05;101611.47;;;2.44;100.00
71666;BME280;59503;53.486;10.196;2023-02-19T04:23:36;101615.50;;;2.46;100.00
71666;BME280;59503;53.486;10.196;2023-02-19T04:26:04;101607.78;;;2.40;100.00
71666;BME280;59503;53.486;10.196;2023-02-19T04:28:32;101617.44;;;2.41;100.00
71666;BME280;59503;53.486;10.196;2023-02-19T04:30:58;101620.41;;;2.39;100.00
71666;BME280;59503;53.486;10.196;2023-02-19T04:33:23;101628.72;;;2.38;100.00
71666;BME280;59503;53.486;10.196;2023-02-19T04:35:49;101634.09;;;2.38;100.00
71666;BME280;59503;53.486;10.196;2023-02-19T04:38:14;101651.53;;;2.35;100.00
71666;BME280;59503;53.486;10.196;2023-02-19T04:40:40;101652.94;;;2.33;100.00
71666;BME280;59503;53.486;10.196;2023-02-19T04:43:05;101649.16;;;2.34;100.00
71666;BME280;59503;53.486;10.196;2023-02-19T04:45:30;101654.22;;;2.35;100.00
71666;BME280;59503;53.486;10.196;2023-02-19T04:47:57;101659.34;;;2.32;100.00
71666;BME280;59503;53.486;10.196;2023-02-19T04:50:23;101657.78;;;2.31;100.00
71666;BME280;59503;53.486;10.196;2023-02-19T04:52:48;101664.22;;;2.30;100.00
71666;BME280;59503;53.486;10.196;2023-02-19T04:55:14;101665.25;;;2.34;100.00
71666;BME280;59503;53.486;10.196;2023-02-19T04:57:39;101670.38;;;2.30;100.00
71666;BME280;59503;53.486;10.196;2023-02-19T05:00:05;101668.84;;;2.24;100.00
71666;BME280;59503;53.486;10.196;2023-02-19T05:02:32;101665.91;;;2.21;100.00
71666;BME280;59503;53.486;10.196;2023-02-19T05:04:58;101673.16;;;2.20;100.00
71666;BME280;59503;53.486;10.196;2023-02-19T05:07:23;101682.00;;;2.21;100.00
71666;BME280;59503;53.486;10.196;2023-02-19T05:09:49;101668.69;;;2.11;100.00
71666;BME280;59503;53.486;10.196;2023-02-19T05:12:14;101678.34;;;2.12;100.00
71666;BME280;59503;53.486;10.196;2023-02-19T05:14:40;101673.81;;;2.07;100.00
71666;BME280;59503;53.486;10.196;2023-02-19T05:17:05;101678.09;;;2.08;100.00
71666;BME280;59503;53.486;10.196;2023-02-19T05:19:31;101680.56;;;2.05;100.00
71666;BME280;59503;53.486;10.196;2023-02-19T05:21:56;101683.78;;;2.02;100.00
71666;BME280;59503;53.486;10.196;2023-02-19T05:24:22;101688.38;;;2.01;100.00
71666;BME280;59503;53.486;10.196;2023-02-19T05:26:49;101680.66;;;1.95;100.00
71666;BME280;59503;53.486;10.196;2023-02-19T05:29:14;101682.06;;;1.87;100.00
71666;BME280;59503;53.486;10.196;2023-02-19T05:31:40;101685.28;;;1.84;100.00
71666;BME280;59503;53.486;10.196;2023-02-19T05:34:05;101693.66;;;1.78;100.00
71666;BME280;59503;53.486;10.196;2023-02-19T05:36:31;101689.38;;;1.77;100.00
71666;BME280;59503;53.486;10.196;2023-02-19T05:38:57;101703.56;;;1.77;100.00
71666;BME280;59503;53.486;10.196;2023-02-19T05:41:25;101690.28;;;1.62;100.00
71666;BME280;59503;53.486;10.196;2023-02-19T05:43:51;101708.25;;;1.57;100.00
71666;BME280;59503;53.486;10.196;2023-02-19T05:46:19;101710.94;;;1.57;100.00
71666;BME280;59503;53.486;10.196;2023-02-19T05:48:47;101715.81;;;1.50;100.00
71666;BME280;59503;53.486;10.196;2023-02-19T05:51:15;101721.19;;;1.45;100.00
71666;BME280;59503;53.486;10.196;2023-02-19T05:53:42;101718.53;;;1.40;100.00
71666;BME280;59503;53.486;10.196;2023-02-19T05:56:31;101729.31;;;1.29;100.00
71666;BME280;59503;53.486;10.196;2023-02-19T05:58:57;101727.75;;;1.23;100.00
71666;BME280;59503;53.486;10.196;2023-02-19T06:01:25;101725.41;;;1.12;100.00
71666;BME280;59503;53.486;10.196;2023-02-19T06:03:51;101736.94;;;1.07;100.00
71666;BME280;59503;53.486;10.196;2023-02-19T06:06:18;101735.06;;;0.98;100.00
71666;BME280;59503;53.486;10.196;2023-02-19T06:08:44;101736.44;;;0.95;100.00
71666;BME280;59503;53.486;10.196;2023-02-19T06:11:09;101750.13;;;0.89;100.00
71666;BME280;59503;53.486;10.196;2023-02-19T06:13:35;101750.38;;;0.82;100.00
71666;BME280;59503;53.486;10.196;2023-02-19T06:16:05;101755.50;;;0.84;100.00
71666;BME280;59503;53.486;10.196;2023-02-19T06:18:31;101773.16;;;0.80;100.00
71666;BME280;59503;53.486;10.196;2023-02-19T06:21:01;101776.91;;;0.79;100.00
71666;BME280;59503;53.486;10.196;2023-02-19T06:23:27;101783.03;;;0.79;100.00
71666;BME280;59503;53.486;10.196;2023-02-19T06:25:53;101790.53;;;0.77;100.00
71666;BME280;59503;53.486;10.196;2023-02-19T06:28:18;101798.56;;;0.72;100.00
71666;BME280;59503;53.486;10.196;2023-02-19T06:30:44;101803.91;;;0.72;100.00
71666;BME280;59503;53.486;10.196;2023-02-19T06:33:09;101802.31;;;0.71;100.00
71666;BME280;59503;53.486;10.196;2023-02-19T06:35:35;101805.28;;;0.70;100.00
71666;BME280;59503;53.486;10.196;2023-02-19T06:38:00;101811.16;;;0.67;100.00
71666;BME280;59503;53.486;10.196;2023-02-19T06:40:27;101820.53;;;0.59;100.00
71666;BME280;59503;53.486;10.196;2023-02-19T06:42:52;101838.72;;;0.62;100.00
71666;BME280;59503;53.486;10.196;2023-02-19T06:45:18;101835.53;;;0.65;100.00
71666;BME280;59503;53.486;10.196;2023-02-19T06:47:43;101838.19;;;0.60;100.00
71666;BME280;59503;53.486;10.196;2023-02-19T06:50:09;101848.63;;;0.67;100.00
71666;BME280;59503;53.486;10.196;2023-02-19T06:52:34;101850.47;;;0.71;100.00
71666;BME280;59503;53.486;10.196;2023-02-19T06:54:59;101848.88;;;0.75;100.00
71666;BME280;59503;53.486;10.196;2023-02-19T06:57:25;101860.66;;;0.74;100.00
71666;BME280;59503;53.486;10.196;2023-02-19T06:59:50;101864.41;;;0.73;100.00
71666;BME280;59503;53.486;10.196;2023-02-19T07:02:16;101872.69;;;0.77;100.00
71666;BME280;59503;53.486;10.196;2023-02-19T07:04:41;101886.63;;;0.84;100.00
71666;BME280;59503;53.486;10.196;2023-02-19T07:07:10;101876.19;;;0.87;100.00
71666;BME280;59503;53.486;10.196;2023-02-19T07:09:35;101883.66;;;0.90;100.00
71666;BME280;59503;53.486;10.196;2023-02-19T07:12:01;101883.66;;;0.95;100.00
71666;BME280;59503;53.486;10.196;2023-02-19T07:14:27;101893.00;;;0.98;100.00
71666;BME280;59503;53.486;10.196;2023-02-19T07:16:54;101877.47;;;1.00;100.00
71666;BME280;59503;53.486;10.196;2023-02-19T07:19:20;101893.78;;;1.13;100.00
71666;BME280;59503;53.486;10.196;2023-02-19T07:21:46;101885.50;;;1.15;100.00
71666;BME280;59503;53.486;10.196;2023-02-19T07:24:11;101901.53;;;1.20;100.00
71666;BME280;59503;53.486;10.196;2023-02-19T07:26:37;101907.72;;;1.20;100.00
71666;BME280;59503;53.486;10.196;2023-02-19T07:29:03;101908.22;;;1.27;100.00
71666;BME280;59503;53.486;10.196;2023-02-19T07:31:28;101921.59;;;1.43;100.00
71666;BME280;59503;53.486;10.196;2023-02-19T07:33:54;101921.56;;;1.53;100.00
71666;BME280;59503;53.486;10.196;2023-02-19T07:36:21;101922.03;;;1.70;100.00
71666;BME280;59503;53.486;10.196;2023-02-19T07:38:59;101936.47;;;1.79;100.00
71666;BME280;59503;53.486;10.196;2023-02-19T07:41:26;101937.50;;;1.93;100.00
71666;BME280;59503;53.486;10.196;2023-02-19T07:43:53;101939.09;;;1.94;100.00
71666;BME280;59503;53.486;10.196;2023-02-19T07:46:19;101944.69;;;1.97;100.00
71666;BME280;59503;53.486;10.196;2023-02-19T07:48:45;101937.44;;;2.03;100.00
71666;BME280;59503;53.486;10.196;2023-02-19T07:51:14;101943.03;;;2.11;100.00
71666;BME280;59503;53.486;10.196;2023-02-19T07:53:44;101951.22;;;2.35;100.00
71666;BME280;59503;53.486;10.196;2023-02-19T07:56:11;101957.09;;;2.37;100.00
71666;BME280;59503;53.486;10.196;2023-02-19T07:58:37;101960.75;;;2.56;100.00
71666;BME280;59503;53.486;10.196;2023-02-19T08:01:20;101966.75;;;2.82;100.00
71666;BME280;59503;53.486;10.196;2023-02-19T08:04:05;101971.69;;;3.03;100.00
71666;BME280;59503;53.486;10.196;2023-02-19T08:06:31;101982.88;;;3.15;100.00
71666;BME280;59503;53.486;10.196;2023-02-19T08:08:56;101979.13;;;3.11;100.00
71666;BME280;59503;53.486;10.196;2023-02-19T08:11:26;101991.03;;;3.00;100.00
71666;BME280;59503;53.486;10.196;2023-02-19T08:14:10;101981.97;;;2.91;100.00
71666;BME280;59503;53.486;10.196;2023-02-19T08:16:35;101989.03;;;2.82;100.00
71666;BME280;59503;53.486;10.196;2023-02-19T08:19:00;101991.22;;;2.75;100.00
71666;BME280;59503;53.486;10.196;2023-02-19T08:21:26;101993.09;;;2.75;100.00
71666;BME280;59503;53.486;10.196;2023-02-19T08:23:51;101992.47;;;2.88;100.00
71666;BME280;59503;53.486;10.196;2023-02-19T08:26:17;101997.94;;;3.11;100.00
71666;BME280;59503;53.486;10.196;2023-02-19T08:28:43;101994.94;;;3.46;100.00
71666;BME280;59503;53.486;10.196;2023-02-19T08:31:09;101997.28;;;3.53;100.00
71666;BME280;59503;53.486;10.196;2023-02-19T08:33:36;101993.19;;;3.60;100.00
71666;BME280;59503;53.486;10.196;2023-02-19T08:36:06;101986.06;;;3.74;100.00
71666;BME280;59503;53.486;10.196;2023-02-19T08:38:34;101992.69;;;3.82;100.00
71666;BME280;59503;53.486;10.196;2023-02-19T08:41:08;101992.97;;;3.80;100.00
71666;BME280;59503;53.486;10.196;2023-02-19T08:43:34;102006.31;;;3.91;100.00
71666;BME280;59503;53.486;10.196;2023-02-19T08:46:00;102004.47;;;4.10;100.00
71666;BME280;59503;53.486;10.196;2023-02-19T08:48:26;102000.81;;;4.43;100.00
71666;BME280;59503;53.486;10.196;2023-02-19T08:51:00;102012.56;;;4.52;100.00
71666;BME280;59503;53.486;10.196;2023-02-19T08:53:28;102022.75;;;4.73;100.00
71666;BME280;59503;53.486;10.196;2023-02-19T08:55:54;102020.50;;;4.80;100.00
71666;BME280;59503;53.486;10.196;2023-02-19T08:58:20;102028.66;;;5.26;100.00
71666;BME280;59503;53.486;10.196;2023-02-19T09:00:46;102037.25;;;5.28;100.00
71666;BME280;59503;53.486;10.196;2023-02-19T09:03:12;102052.56;;;5.46;100.00
71666;BME280;59503;53.486;10.196;2023-02-19T09:05:38;102050.63;;;5.65;100.00
71666;BME280;59503;53.486;10.196;2023-02-19T09:08:04;102051.03;;;5.91;100.00
71666;BME280;59503;53.486;10.196;2023-02-19T09:10:30;102063.69;;;5.90;100.00
71666;BME280;59503;53.486;10.196;2023-02-19T09:12:56;102068.59;;;5.88;100.00
71666;BME280;59503;53.486;10.196;2023-02-19T09:15:21;102067.63;;;6.11;100.00
71666;BME280;59503;53.486;10.196;2023-02-19T09:17:51;102081.22;;;5.93;100.00
71666;BME280;59503;53.486;10.196;2023-02-19T09:20:17;102083.81;;;6.25;100.00
71666;BME280;59503;53.486;10.196;2023-02-19T09:22:42;102082.72;;;6.67;100.00
71666;BME280;59503;53.486;10.196;2023-02-19T09:25:08;102099.25;;;7.01;100.00
71666;BME280;59503;53.486;10.196;2023-02-19T09:27:33;102094.28;;;6.81;100.00
71666;BME280;59503;53.486;10.196;2023-02-19T09:29:58;102090.63;;;6.63;100.00
71666;BME280;59503;53.486;10.196;2023-02-19T09:32:24;102100.03;;;6.39;100.00
71666;BME280;59503;53.486;10.196;2023-02-19T09:34:49;102090.44;;;6.46;100.00
71666;BME280;59503;53.486;10.196;2023-02-19T09:37:15;102099.22;;;6.11;100.00
71666;BME280;59503;53.486;10.196;2023-02-19T09:39:41;102088.22;;;6.07;100.00
71666;BME280;59503;53.486;10.196;2023-02-19T09:42:16;102092.19;;;6.10;100.00
71666;BME280;59503;53.486;10.196;2023-02-19T09:44:45;102104.22;;;6.17;100.00
71666;BME280;59503;53.486;10.196;2023-02-19T09:47:17;102104.84;;;6.42;100.00
71666;BME280;59503;53.486;10.196;2023-02-19T09:49:46;102108.63;;;6.41;100.00
71666;BME280;59503;53.486;10.196;2023-02-19T09:52:38;102116.03;;;6.49;100.00
71666;BME280;59503;53.486;10.196;2023-02-19T09:55:35;102113.41;;;6.30;100.00
71666;BME280;59503;53.486;10.196;2023-02-19T09:58:32;102111.22;;;6.46;100.00
71666;BME280;59503;53.486;10.196;2023-02-19T10:01:01;102106.41;;;6.83;100.00
71666;BME280;59503;53.486;10.196;2023-02-19T10:03:38;102116.34;;;7.10;99.83
71666;BME280;59503;53.486;10.196;2023-02-19T10:08:40;102146.09;;;7.45;97.22
71666;BME280;59503;53.486;10.196;2023-02-19T10:11:06;102150.81;;;6.91;98.22
71666;BME280;59503;53.486;10.196;2023-02-19T10:13:42;102160.34;;;7.02;95.67
71666;BME280;59503;53.486;10.196;2023-02-19T10:16:14;102165.25;;;6.59;97.99
71666;BME280;59503;53.486;10.196;2023-02-19T10:18:44;102167.44;;;6.98;96.95
71666;BME280;59503;53.486;10.196;2023-02-19T10:21:18;102169.16;;;6.94;92.85
71666;BME280;59503;53.486;10.196;2023-02-19T10:23:46;102180.47;;;6.42;94.71
71666;BME280;59503;53.486;10.196;2023-02-19T10:26:13;102184.16;;;6.59;95.83
71666;BME280;59503;53.486;10.196;2023-02-19T10:28:38;102192.97;;;6.51;92.28
71666;BME280;59503;53.486;10.196;2023-02-19T10:31:14;102190.47;;;6.41;91.83
71666;BME280;59503;53.486;10.196;2023-02-19T10:33:56;102195.97;;;6.50;91.99
71666;BME280;59503;53.486;10.196;2023-02-19T10:38:51;102198.13;;;5.88;88.56
71666;BME280;59503;53.486;10.196;2023-02-19T10:41:22;102195.84;;;5.77;91.31
71666;BME280;59503;53.486;10.196;2023-02-19T10:44:28;102203.66;;;5.78;87.56
71666;BME280;59503;53.486;10.196;2023-02-19T10:46:57;102190.31;;;5.68;86.25
71666;BME280;59503;53.486;10.196;2023-02-19T10:49:31;102195.63;;;5.92;88.50
71666;BME280;59503;53.486;10.196;2023-02-19T10:52:09;102200.44;;;5.95;88.59
71666;BME280;59503;53.486;10.196;2023-02-19T10:54:42;102204.59;;;6.06;86.48
71666;BME280;59503;53.486;10.196;2023-02-19T10:59:55;102198.44;;;6.32;87.38
71666;BME280;59503;53.486;10.196;2023-02-19T11:02:26;102210.75;;;6.39;86.12
71666;BME280;59503;53.486;10.196;2023-02-19T11:07:33;102221.34;;;6.35;80.10
71666;BME280;59503;53.486;10.196;2023-02-19T11:10:00;102230.31;;;6.17;78.27
71666;BME280;59503;53.486;10.196;2023-02-19T11:12:29;102246.13;;;6.23;80.70
71666;BME280;59503;53.486;10.196;2023-02-19T11:14:55;102235.63;;;6.22;80.85
71666;BME280;59503;53.486;10.196;2023-02-19T11:17:23;102237.84;;;6.33;77.76
71666;BME280;59503;53.486;10.196;2023-02-19T11:19:55;102235.38;;;6.51;79.59
71666;BME280;59503;53.486;10.196;2023-02-19T11:22:32;102238.72;;;6.75;78.14
71666;BME280;59503;53.486;10.196;2023-02-19T11:30:31;102234.78;;;7.21;76.54
71666;BME280;59503;53.486;10.196;2023-02-19T11:33:32;102235.59;;;7.35;74.15
71666;BME280;59503;53.486;10.196;2023-02-19T11:36:31;102233.56;;;7.27;77.36
71666;BME280;59503;53.486;10.196;2023-02-19T11:38:59;102234.38;;;7.28;73.10
71666;BME280;59503;53.486;10.196;2023-02-19T11:47:10;102241.75;;;6.87;71.29
71666;BME280;59503;53.486;10.196;2023-02-19T11:55:36;102258.53;;;6.84;74.15
71666;BME280;59503;53.486;10.196;2023-02-19T12:01:13;102252.25;;;6.88;73.72
71666;BME280;59503;53.486;10.196;2023-02-19T12:03:48;102264.94;;;7.15;71.41
71666;BME280;59503;53.486;10.196;2023-02-19T12:06:31;102252.25;;;7.02;70.59
71666;BME280;59503;53.486;10.196;2023-02-19T12:17:49;102252.75;;;7.04;71.70
71666;BME280;59503;53.486;10.196;2023-02-19T12:20:32;102251.34;;;6.93;71.05
71666;BME280;59503;53.486;10.196;2023-02-19T12:45:34;102268.28;;;7.12;70.87
71666;BME280;59503;53.486;10.196;2023-02-19T12:48:25;102267.44;;;6.98;71.42
71666;BME280;59503;53.486;10.196;2023-02-19T12:50:56;102270.75;;;7.22;71.55
71666;BME280;59503;53.486;10.196;2023-02-19T12:56:07;102279.38;;;7.37;70.49
71666;BME280;59503;53.486;10.196;2023-02-19T12:58:41;102282.34;;;7.49;71.81
71666;BME280;59503;53.486;10.196;2023-02-19T13:01:13;102282.53;;;7.53;69.53
71666;BME280;59503;53.486;10.196;2023-02-19T13:03:46;102265.91;;;7.46;68.17
71666;BME280;59503;53.486;10.196;2023-02-19T13:06:36;102264.31;;;7.45;72.10
71666;BME280;59503;53.486;10.196;2023-02-19T13:09:11;102266.34;;;7.26;73.62
71666;BME280;59503;53.486;10.196;2023-02-19T13:11:43;102269.03;;;7.26;74.31
71666;BME280;59503;53.486;10.196;2023-02-19T13:14:22;102259.34;;;7.25;72.80
71666;BME280;59503;53.486;10.196;2023-02-19T13:16:55;102245.53;;;7.13;72.12
71666;BME280;59503;53.486;10.196;2023-02-19T13:19:21;102247.81;;;7.19;73.11
71666;BME280;59503;53.486;10.196;2023-02-19T13:21:55;102238.91;;;7.19;72.94
71666;BME280;59503;53.486;10.196;2023-02-19T13:24:42;102246.50;;;7.44;74.23
71666;BME280;59503;53.486;10.196;2023-02-19T13:27:34;102253.50;;;7.31;75.11
71666;BME280;59503;53.486;10.196;2023-02-19T13:30:55;102250.47;;;7.46;73.38
71666;BME280;59503;53.486;10.196;2023-02-19T13:33:53;102250.09;;;7.39;73.08
71666;BME280;59503;53.486;10.196;2023-02-19T13:36:23;102237.03;;;7.55;72.64
71666;BME280;59503;53.486;10.196;2023-02-19T13:38:50;102245.09;;;7.33;72.39
71666;BME280;59503;53.486;10.196;2023-02-19T13:41:26;102253.81;;;7.43;71.82
71666;BME280;59503;53.486;10.196;2023-02-19T13:43:54;102243.09;;;7.74;70.19
71666;BME280;59503;53.486;10.196;2023-02-19T13:46:23;102230.94;;;7.85;68.43
71666;BME280;59503;53.486;10.196;2023-02-19T13:51:52;102242.25;;;8.09;69.61
71666;BME280;59503;53.486;10.196;2023-02-19T13:54:30;102240.53;;;8.13;69.32
71666;BME280;59503;53.486;10.196;2023-02-19T13:59:52;102259.59;;;8.08;70.08
71666;BME280;59503;53.486;10.196;2023-02-19T14:04:49;102251.91;;;8.02;69.61
71666;BME280;59503;53.486;10.196;2023-02-19T14:14:45;102262.56;;;7.76;65.38
71666;BME280;59503;53.486;10.196;2023-02-19T14:25:34;102276.72;;;7.46;69.94
71666;BME280;59503;53.486;10.196;2023-02-19T14:33:09;102262.28;;;7.64;70.66
71666;BME280;59503;53.486;10.196;2023-02-19T14:35:41;102270.88;;;7.66;69.01
71666;BME280;59503;53.486;10.196;2023-02-19T14:38:47;102275.13;;;7.58;69.52
71666;BME280;59503;53.486;10.196;2023-02-19T14:41:05;102283.06;;;7.41;70.88
71666;BME280;59503;53.486;10.196;2023-02-19T14:43:32;102277.75;;;7.50;71.51
71666;BME280;59503;53.486;10.196;2023-02-19T14:46:03;102260.28;;;7.56;71.53
71666;BME280;59503;53.486;10.196;2023-02-19T14:48:38;102258.00;;;7.36;74.39
71666;BME280;59503;53.486;10.196;2023-02-19T14:51:12;102256.31;;;7.26;75.23
71666;BME280;59503;53.486;10.196;2023-02-19T14:53:42;102255.91;;;7.33;76.02
71666;BME280;59503;53.486;10.196;2023-02-19T14:56:19;102245.31;;;7.23;75.93
71666;BME280;59503;53.486;10.196;2023-02-19T15:01:35;102241.94;;;6.90;77.14
71666;BME280;59503;53.486;10.196;2023-02-19T15:04:01;102231.69;;;6.87;76.56